Lionheart — 9HA4314 — position and weather

sailwx.info

Track history (hours):
 
Tides and Currents Weather Stations Pressure Air Temp Water Temp Dewpoint Dewpoint Depression Visibility Wind Speed Wind Dir Waves Ship Positions

Lionheart

Last reported at 2018-Jun-21 23:28 UTC. Time now 2018-Jun-21 23:54 UTC.
Position N 43°44' E 007°26'.

Length 90 m; draft 4.6 m.

Type: Pleasure craft. MMSI: 249613000.

Date/timePositionNaut miles runAvg speedWind from/ knotsBaromVisibWave heightAir tempDewpointWater temp
2018-Jun-21 23:28N 43°44' E 007°26'0 0.0
2018-Jun-21 22:58N 43°44' E 007°26'0 0.0
2018-Jun-21 22:28N 43°44' E 007°26'0 0.0
2018-Jun-21 21:58N 43°44' E 007°26'0 0.0
2018-Jun-21 21:28N 43°44' E 007°26'0 0.0
2018-Jun-21 20:52N 43°44' E 007°26'0 0.0
2018-Jun-21 20:28N 43°44' E 007°26'0 0.0
2018-Jun-21 19:58N 43°44' E 007°26'0 0.0
2018-Jun-21 19:28N 43°44' E 007°26'0 0.0
2018-Jun-21 18:58N 43°44' E 007°26'0 0.0
2018-Jun-21 18:28N 43°44' E 007°26'0 0.0
2018-Jun-21 17:58N 43°44' E 007°26'0 0.0
2018-Jun-21 17:28N 43°44' E 007°26'0 1.0
2018-Jun-21 17:00N 43°44' E 007°26'711.6
2018-Jun-21 16:24N 43°39' E 007°20'514.1
2018-Jun-21 16:00N 43°35' E 007°14'611.8
2018-Jun-21 15:30N 43°32' E 007°07'2 1.6
2018-Jun-21 14:25N 43°34' E 007°06'0 0.0
2018-Jun-21 13:58N 43°34' E 007°06'0 0.0
2018-Jun-21 13:25N 43°34' E 007°06'0 0.0
2018-Jun-21 10:25N 43°34' E 007°06'0 0.0
2018-Jun-21 08:49N 43°34' E 007°06'0 0.0
2018-Jun-21 08:19N 43°34' E 007°06'1 2.3
2018-Jun-21 08:00N 43°33' E 007°06'4 7.1
2018-Jun-21 07:30N 43°33' E 007°11'814.9
2018-Jun-21 06:58N 43°38' E 007°19'714.4
2018-Jun-21 06:30N 43°43' E 007°26'1 2.2
2018-Jun-21 05:54N 43°44' E 007°26'0 0.0
2018-Jun-21 05:27N 43°44' E 007°26'0 0.0
2018-Jun-21 04:54N 43°44' E 007°26'0 0.0
2018-Jun-21 04:24N 43°44' E 007°26'0 0.0
2018-Jun-21 03:57N 43°44' E 007°26'0 0.0
2018-Jun-21 03:30N 43°44' E 007°26'0 0.0
2018-Jun-21 02:57N 43°44' E 007°26'0 0.0
2018-Jun-21 02:30N 43°44' E 007°26'0 0.0
2018-Jun-21 02:00N 43°44' E 007°26'0 0.0
2018-Jun-21 01:24N 43°44' E 007°26'0 0.0
2018-Jun-21 00:57N 43°44' E 007°26'0 0.0
2018-Jun-21 00:30N 43°44' E 007°26'0 0.0
2018-Jun-21 00:00N 43°44' E 007°26'0 0.0
2018-Jun-20 23:27N 43°44' E 007°26'0 0.0
2018-Jun-20 23:00N 43°44' E 007°26'0 0.0
2018-Jun-20 22:27N 43°44' E 007°26'0 0.0
2018-Jun-20 21:57N 43°44' E 007°26'0 0.0
2018-Jun-20 21:30N 43°44' E 007°26'0 0.0
2018-Jun-20 20:57N 43°44' E 007°26'0 0.0
2018-Jun-20 20:21N 43°44' E 007°26'0 0.0
2018-Jun-20 19:57N 43°44' E 007°26'0 0.0
2018-Jun-20 19:30N 43°44' E 007°26'0 0.0
2018-Jun-20 18:57N 43°44' E 007°26'0 0.0
2018-Jun-20 18:18N 43°44' E 007°26'0 0.0
2018-Jun-20 18:00N 43°44' E 007°26'0 0.0
2018-Jun-20 17:27N 43°44' E 007°26'0 0.0
2018-Jun-20 17:00N 43°44' E 007°26'0 0.0
2018-Jun-20 16:30N 43°44' E 007°26'0 0.0
2018-Jun-20 16:00N 43°44' E 007°26'0 0.0
2018-Jun-20 15:30N 43°44' E 007°26'0 0.0
2018-Jun-20 14:57N 43°44' E 007°26'0 0.0
2018-Jun-20 14:30N 43°44' E 007°26'0 0.0
2018-Jun-20 14:00N 43°44' E 007°26'0 0.0
2018-Jun-20 13:30N 43°44' E 007°26'0 0.0
2018-Jun-20 13:00N 43°44' E 007°26'0 0.0
2018-Jun-20 12:30N 43°44' E 007°26'0 0.0
2018-Jun-20 11:57N 43°44' E 007°26'0 0.0
2018-Jun-20 11:27N 43°44' E 007°26'0 0.0
2018-Jun-20 11:00N 43°44' E 007°26'0 0.0
2018-Jun-20 10:30N 43°44' E 007°26'0 0.0
2018-Jun-20 10:00N 43°44' E 007°26'0 0.0
2018-Jun-20 09:30N 43°44' E 007°26'0 0.0
2018-Jun-20 09:00N 43°44' E 007°26'0 0.0
2018-Jun-20 08:30N 43°44' E 007°26'0 0.0
2018-Jun-20 08:00N 43°44' E 007°26'0 0.0
2018-Jun-20 07:30N 43°44' E 007°26'0 0.0
2018-Jun-20 07:00N 43°44' E 007°26'0 0.0
2018-Jun-20 06:30N 43°44' E 007°26'0 0.0
2018-Jun-20 06:00N 43°44' E 007°26'0 0.0
2018-Jun-20 05:30N 43°44' E 007°26'0 0.0
2018-Jun-20 05:00N 43°44' E 007°26'0 0.0
2018-Jun-20 04:30N 43°44' E 007°26'0 0.0
2018-Jun-20 04:00N 43°44' E 007°26'0 0.0
2018-Jun-20 03:30N 43°44' E 007°26'0 0.0
2018-Jun-20 03:00N 43°44' E 007°26'0 0.0
2018-Jun-20 02:27N 43°44' E 007°26'0 0.0
2018-Jun-20 01:57N 43°44' E 007°26'0 0.0
2018-Jun-20 01:30N 43°44' E 007°26'0 0.0
2018-Jun-20 01:00N 43°44' E 007°26'0 0.0
2018-Jun-20 00:30N 43°44' E 007°26'0 0.0
2018-Jun-20 00:00N 43°44' E 007°26'0 0.0
2018-Jun-19 23:27N 43°44' E 007°26'0 0.0
2018-Jun-19 22:57N 43°44' E 007°26'0 0.0
2018-Jun-19 22:30N 43°44' E 007°26'0 0.0
2018-Jun-19 22:00N 43°44' E 007°26'0 0.0
2018-Jun-19 21:24N 43°44' E 007°26'0 0.0
2018-Jun-19 21:00N 43°44' E 007°26'0 0.0
2018-Jun-19 20:30N 43°44' E 007°26'0 0.0
2018-Jun-19 20:00N 43°44' E 007°26'0 0.0
2018-Jun-19 19:30N 43°44' E 007°26'0 0.0
2018-Jun-19 18:57N 43°44' E 007°26'0 0.0
2018-Jun-19 18:30N 43°44' E 007°26'0 0.0
2018-Jun-19 18:00N 43°44' E 007°26'0 0.0
2018-Jun-19 17:30N 43°44' E 007°26'0 0.0
2018-Jun-19 17:00N 43°44' E 007°26'0 0.0
2018-Jun-19 16:30N 43°44' E 007°26'0 0.0
2018-Jun-19 16:00N 43°44' E 007°26'0 0.0
2018-Jun-19 15:30N 43°44' E 007°26'0 0.0
2018-Jun-19 15:00N 43°44' E 007°26'0 0.0
2018-Jun-19 14:30N 43°44' E 007°26'0 0.0
2018-Jun-19 14:00N 43°44' E 007°26'0 0.0
2018-Jun-19 13:30N 43°44' E 007°26'0 0.0
2018-Jun-19 13:00N 43°44' E 007°26'0 0.0
2018-Jun-19 12:30N 43°44' E 007°26'0 0.0
2018-Jun-19 12:00N 43°44' E 007°26'0 0.0
2018-Jun-19 11:30N 43°44' E 007°26'0 0.0
2018-Jun-19 11:00N 43°44' E 007°26'0 0.0
2018-Jun-19 10:30N 43°44' E 007°26'0 0.0
2018-Jun-19 09:57N 43°44' E 007°26'0 0.0
2018-Jun-19 09:30N 43°44' E 007°26'0 0.0
2018-Jun-19 09:00N 43°44' E 007°26'0 0.0
2018-Jun-19 08:30N 43°44' E 007°26'0 0.0
2018-Jun-19 08:00N 43°44' E 007°26'0 0.0
2018-Jun-19 07:30N 43°44' E 007°26'0 0.0
2018-Jun-19 07:00N 43°44' E 007°26'0 0.0
2018-Jun-19 06:30N 43°44' E 007°26'0 0.0
2018-Jun-19 06:00N 43°44' E 007°26'0 0.0
2018-Jun-19 05:30N 43°44' E 007°26'0 0.0
2018-Jun-19 05:00N 43°44' E 007°26'0 0.0
2018-Jun-19 04:27N 43°44' E 007°26'0 0.0
2018-Jun-19 04:00N 43°44' E 007°26'0 0.0
2018-Jun-19 03:30N 43°44' E 007°26'0 0.0
2018-Jun-19 03:00N 43°44' E 007°26'0 0.0
2018-Jun-19 02:24N 43°44' E 007°26'0 0.0
2018-Jun-19 02:00N 43°44' E 007°26'0 0.0
2018-Jun-19 01:30N 43°44' E 007°26'0 0.0
2018-Jun-19 01:00N 43°44' E 007°26'0 0.0
2018-Jun-19 00:30N 43°44' E 007°26'0 0.0
2018-Jun-18 23:57N 43°44' E 007°26'0 0.0
2018-Jun-18 23:30N 43°44' E 007°26'0 0.0
2018-Jun-18 22:51N 43°44' E 007°26'0 0.0
2018-Jun-18 22:30N 43°44' E 007°26'0 0.0
2018-Jun-18 22:00N 43°44' E 007°26'0 0.0
2018-Jun-18 21:30N 43°44' E 007°26'0 0.0
2018-Jun-18 21:00N 43°44' E 007°26'0 0.0
2018-Jun-18 20:30N 43°44' E 007°26'0 0.0
2018-Jun-18 20:00N 43°44' E 007°26'0 0.0
2018-Jun-18 19:27N 43°44' E 007°26'0 0.0
2018-Jun-18 19:00N 43°44' E 007°26'0 0.0
2018-Jun-18 18:30N 43°44' E 007°26'0 0.0
2018-Jun-18 18:00N 43°44' E 007°26'0 0.0
2018-Jun-18 17:30N 43°44' E 007°26'0 0.0
2018-Jun-18 17:00N 43°44' E 007°26'0 0.0
2018-Jun-18 16:30N 43°44' E 007°26'0 0.0
2018-Jun-18 16:00N 43°44' E 007°26'0 0.0
2018-Jun-18 15:30N 43°44' E 007°26'0 0.0
2018-Jun-18 14:57N 43°44' E 007°26'0 0.0
2018-Jun-18 14:30N 43°44' E 007°26'0 0.0
2018-Jun-18 14:00N 43°44' E 007°26'0 0.0
2018-Jun-18 13:30N 43°44' E 007°26'0 0.0
2018-Jun-18 13:00N 43°44' E 007°26'0 0.0
2018-Jun-18 12:30N 43°44' E 007°26'0 0.0
2018-Jun-18 11:57N 43°44' E 007°26'0 0.0
2018-Jun-18 11:24N 43°44' E 007°26'0 0.0
2018-Jun-18 11:00N 43°44' E 007°26'0 0.0
2018-Jun-18 10:30N 43°44' E 007°26'0 0.0
2018-Jun-18 10:00N 43°44' E 007°26'0 0.0
2018-Jun-18 09:30N 43°44' E 007°26'0 0.0
2018-Jun-18 09:00N 43°44' E 007°26'0 0.0
2018-Jun-18 08:30N 43°44' E 007°26'0 0.0
2018-Jun-18 08:00N 43°44' E 007°26'0 0.0
2018-Jun-18 07:30N 43°44' E 007°26'0 0.0
2018-Jun-18 07:00N 43°44' E 007°26'0 0.0
2018-Jun-18 06:06N 43°44' E 007°26'0 0.0
2018-Jun-18 05:45N 43°44' E 007°26'0 0.0
2018-Jun-18 04:21N 43°44' E 007°26'0 0.0
2018-Jun-18 03:12N 43°44' E 007°26'0 0.0
2018-Jun-17 20:21N 43°44' E 007°26'0 0.0
2018-Jun-17 19:57N 43°44' E 007°26'0 0.0
2018-Jun-17 19:30N 43°44' E 007°26'0 0.0
2018-Jun-17 18:15N 43°44' E 007°26'0 0.0
2018-Jun-17 17:45N 43°44' E 007°26'0 0.0
2018-Jun-17 17:18N 43°44' E 007°26'0 0.0
2018-Jun-17 16:12N 43°44' E 007°26'0 0.0
2018-Jun-17 15:46N 43°44' E 007°26'0 0.3
2018-Jun-17 15:30N 43°44' E 007°26'1 1.0
2018-Jun-17 14:56N 43°44' E 007°26'0 0.0
2018-Jun-17 14:20N 43°44' E 007°26'0 0.0
2018-Jun-17 13:59N 43°44' E 007°26'0 0.0
2018-Jun-17 13:29N 43°44' E 007°26'0 0.0
2018-Jun-17 12:59N 43°44' E 007°26'0 0.0
2018-Jun-17 12:23N 43°44' E 007°26'0 0.0
2018-Jun-17 11:47N 43°44' E 007°26'0 0.0
2018-Jun-17 11:28N 43°44' E 007°26'1 1.3
2018-Jun-17 10:58N 43°44' E 007°26'0 0.0
2018-Jun-17 10:30N 43°44' E 007°26'0 0.0
2018-Jun-17 10:00N 43°44' E 007°26'0 0.0
2018-Jun-17 09:30N 43°44' E 007°26'0 0.0
2018-Jun-17 09:00N 43°44' E 007°26'0 0.0
2018-Jun-17 08:30N 43°44' E 007°26'0 0.0
2018-Jun-17 08:00N 43°44' E 007°26'0 0.0
2018-Jun-17 07:30N 43°44' E 007°26'0 0.0
2018-Jun-17 07:00N 43°44' E 007°26'0 0.1
2018-Jun-17 06:30N 43°44' E 007°26'0 0.4
2018-Jun-17 05:47N 43°44' E 007°26'0 0.0
2018-Jun-17 05:29N 43°44' E 007°26'0 0.0
2018-Jun-17 04:59N 43°44' E 007°26'0 0.0
2018-Jun-17 04:23N 43°44' E 007°26'0 0.0
2018-Jun-17 03:59N 43°44' E 007°26'0 0.0
2018-Jun-17 03:11N 43°44' E 007°26'0 0.0
2018-Jun-17 02:47N 43°44' E 007°26'0 0.0
2018-Jun-17 02:23N 43°44' E 007°26'0 0.0
2018-Jun-17 01:59N 43°44' E 007°26'0 0.0
2018-Jun-17 01:23N 43°44' E 007°26'0 0.0
2018-Jun-17 00:59N 43°44' E 007°26'0 0.0
2018-Jun-17 00:29N 43°44' E 007°26'0 0.0
2018-Jun-16 23:59N 43°44' E 007°26'0 0.0
2018-Jun-16 23:29N 43°44' E 007°26'0 0.0
2018-Jun-16 22:53N 43°44' E 007°26'0 0.0
2018-Jun-16 22:29N 43°44' E 007°26'0 0.0
2018-Jun-16 21:53N 43°44' E 007°26'0 0.0
2018-Jun-16 21:17N 43°44' E 007°26'0 0.0
2018-Jun-16 20:59N 43°44' E 007°26'0 0.0
2018-Jun-16 19:05N 43°44' E 007°26'0 0.0
2018-Jun-16 18:41N 43°44' E 007°26'0 0.0
2018-Jun-16 18:29N 43°44' E 007°26'0 0.0
2018-Jun-16 17:59N 43°44' E 007°26'0 0.0
2018-Jun-16 16:35N 43°44' E 007°26'0 0.0
2018-Jun-16 16:17N 43°44' E 007°26'0 0.0
2018-Jun-16 15:59N 43°44' E 007°26'1 1.5
2018-Jun-16 15:30N 43°45' E 007°26'0 0.0
2018-Jun-16 15:00N 43°45' E 007°26'0 0.0
2018-Jun-16 14:30N 43°45' E 007°26'0 0.0
2018-Jun-16 14:00N 43°45' E 007°26'0 0.0
2018-Jun-16 13:30N 43°45' E 007°26'0 0.0
2018-Jun-16 13:00N 43°45' E 007°26'0 0.0
2018-Jun-16 12:30N 43°44' E 007°26'0 0.0
2018-Jun-16 12:00N 43°44' E 007°26'0 0.0
2018-Jun-16 11:30N 43°44' E 007°26'0 0.0
2018-Jun-16 10:57N 43°44' E 007°26'0 0.0
2018-Jun-16 10:30N 43°44' E 007°26'0 0.5
2018-Jun-16 10:00N 43°44' E 007°26'0 0.8
2018-Jun-16 09:30N 43°44' E 007°26'0 0.0
2018-Jun-16 09:00N 43°44' E 007°26'0 0.0
2018-Jun-16 08:30N 43°44' E 007°26'0 0.0
2018-Jun-16 07:57N 43°44' E 007°26'0 0.0
2018-Jun-16 07:30N 43°44' E 007°26'0 0.0
2018-Jun-16 07:00N 43°44' E 007°26'0 0.0
2018-Jun-16 06:27N 43°44' E 007°26'0 0.0
2018-Jun-16 05:57N 43°44' E 007°26'0 0.0
2018-Jun-16 04:57N 43°44' E 007°26'0 0.0
2018-Jun-16 04:15N 43°44' E 007°26'0 0.0
2018-Jun-16 03:51N 43°44' E 007°26'0 0.0
2018-Jun-16 03:27N 43°44' E 007°26'0 0.0
2018-Jun-16 02:51N 43°44' E 007°26'0 0.0
2018-Jun-16 02:21N 43°44' E 007°26'0 0.0
2018-Jun-16 01:57N 43°44' E 007°26'0 0.0
2018-Jun-16 01:30N 43°44' E 007°26'0 0.0
2018-Jun-16 01:00N 43°44' E 007°26'0 0.0
2018-Jun-16 00:27N 43°44' E 007°26'0 0.0
2018-Jun-15 22:51N 43°44' E 007°26'0 0.0
2018-Jun-15 22:12N 43°44' E 007°26'0 0.0
2018-Jun-15 21:48N 43°44' E 007°26'0 0.0
2018-Jun-15 21:30N 43°44' E 007°26'0 0.0
2018-Jun-15 20:57N 43°44' E 007°26'0 0.0
2018-Jun-15 20:27N 43°44' E 007°26'0 0.0
2018-Jun-15 19:42N 43°44' E 007°26'0 0.0
2018-Jun-15 19:27N 43°44' E 007°26'0 0.0
2018-Jun-15 18:57N 43°44' E 007°26'0 0.0
2018-Jun-15 18:21N 43°44' E 007°26'0 0.0
2018-Jun-15 17:42N 43°44' E 007°26'0 0.0
2018-Jun-15 17:27N 43°44' E 007°26'0 0.0
2018-Jun-15 17:00N 43°44' E 007°26'0 0.0
2018-Jun-15 16:21N 43°44' E 007°26'0 0.0
2018-Jun-15 16:00N 43°44' E 007°26'0 0.0
2018-Jun-15 15:30N 43°44' E 007°26'0 0.0
2018-Jun-15 15:00N 43°44' E 007°26'0 0.0
2018-Jun-15 14:30N 43°44' E 007°26'0 0.0
2018-Jun-15 13:57N 43°44' E 007°26'0 0.0
2018-Jun-15 13:30N 43°44' E 007°26'0 0.0
2018-Jun-15 13:00N 43°44' E 007°26'0 0.0
2018-Jun-15 12:27N 43°44' E 007°26'0 0.0
2018-Jun-15 12:00N 43°44' E 007°26'0 0.0
2018-Jun-15 11:30N 43°44' E 007°26'0 0.0
2018-Jun-15 11:00N 43°44' E 007°26'0 0.0
2018-Jun-15 10:30N 43°44' E 007°26'0 0.0
2018-Jun-15 10:00N 43°44' E 007°26'0 0.0
2018-Jun-15 09:24N 43°44' E 007°26'0 0.0
2018-Jun-15 08:57N 43°44' E 007°26'0 0.0
2018-Jun-15 08:30N 43°44' E 007°26'0 0.0
2018-Jun-15 08:00N 43°44' E 007°26'0 0.0
2018-Jun-15 07:27N 43°44' E 007°26'0 0.0
2018-Jun-15 06:57N 43°44' E 007°26'0 0.0
2018-Jun-15 06:21N 43°44' E 007°26'0 0.0
2018-Jun-15 05:57N 43°44' E 007°26'0 0.0
2018-Jun-15 05:27N 43°44' E 007°26'0 0.0
2018-Jun-15 03:45N 43°44' E 007°26'0 0.0
2018-Jun-15 03:21N 43°44' E 007°26'0 0.0
2018-Jun-15 02:15N 43°44' E 007°26'0 0.0
2018-Jun-15 00:51N 43°44' E 007°26'0 0.0
2018-Jun-15 00:06N 43°44' E 007°26'0 0.0
2018-Jun-14 23:45N 43°44' E 007°26'0 0.0
2018-Jun-14 23:21N 43°44' E 007°26'0 0.0
2018-Jun-14 22:57N 43°44' E 007°26'0 0.0
2018-Jun-14 21:57N 43°44' E 007°26'0 0.0
2018-Jun-14 19:45N 43°44' E 007°26'0 0.0
2018-Jun-14 19:15N 43°44' E 007°26'0 0.0
2018-Jun-14 19:00N 43°44' E 007°26'0 0.0
2018-Jun-14 18:21N 43°44' E 007°26'0 0.0
2018-Jun-14 17:54N 43°44' E 007°26'0 0.0
2018-Jun-14 17:21N 43°44' E 007°26'0 0.0
2018-Jun-14 16:57N 43°44' E 007°26'0 0.0
2018-Jun-14 16:21N 43°44' E 007°26'0 0.0
2018-Jun-14 15:57N 43°44' E 007°26'0 0.0
2018-Jun-14 15:27N 43°44' E 007°26'0 0.0
2018-Jun-14 14:51N 43°44' E 007°26'0 0.0
2018-Jun-14 14:27N 43°44' E 007°26'0 0.0
2018-Jun-14 13:54N 43°44' E 007°26'0 0.0
2018-Jun-14 12:42N 43°44' E 007°26'0 0.0
2018-Jun-14 12:21N 43°44' E 007°26'0 0.0
2018-Jun-14 12:00N 43°44' E 007°26'0 0.0
2018-Jun-14 11:27N 43°44' E 007°26'0 0.0
2018-Jun-14 10:45N 43°44' E 007°26'0 0.0
2018-Jun-14 10:27N 43°44' E 007°26'0 0.0
2018-Jun-14 09:57N 43°44' E 007°26'0 0.0
2018-Jun-14 09:21N 43°44' E 007°26'0 0.0
2018-Jun-14 09:00N 43°44' E 007°26'0 0.0
2018-Jun-14 07:57N 43°44' E 007°26'0 0.0
2018-Jun-14 07:27N 43°44' E 007°26'0 0.0
2018-Jun-14 06:24N 43°44' E 007°26'0 0.0
2018-Jun-14 06:00N 43°44' E 007°26'0 0.0
2018-Jun-14 05:27N 43°44' E 007°26'0 0.0
2018-Jun-14 04:45N 43°44' E 007°26'0 0.0
2018-Jun-14 04:09N 43°44' E 007°26'0 0.0
2018-Jun-14 03:54N 43°44' E 007°26'0 0.0
2018-Jun-14 03:27N 43°44' E 007°26'0 0.0
2018-Jun-14 02:57N 43°44' E 007°26'0 0.0
2018-Jun-14 02:27N 43°44' E 007°26'0 0.0
2018-Jun-14 01:57N 43°44' E 007°26'0 0.0
2018-Jun-14 01:27N 43°44' E 007°26'0 0.0
2018-Jun-14 01:00N 43°44' E 007°26'0 0.0
2018-Jun-13 23:42N 43°44' E 007°26'0 0.0
2018-Jun-13 23:24N 43°44' E 007°26'0 0.0
2018-Jun-13 22:57N 43°44' E 007°26'0 0.0
2018-Jun-13 22:27N 43°44' E 007°26'0 0.0
2018-Jun-13 20:33N 43°44' E 007°26'0 0.0
2018-Jun-13 20:09N 43°44' E 007°26'0 0.0
2018-Jun-13 19:54N 43°44' E 007°26'0 0.0
2018-Jun-13 18:57N 43°44' E 007°26'0 0.0
2018-Jun-13 18:27N 43°44' E 007°26'0 0.0
2018-Jun-13 18:00N 43°44' E 007°26'0 0.0
2018-Jun-13 17:27N 43°44' E 007°26'0 0.0
2018-Jun-13 16:51N 43°44' E 007°26'0 0.0
2018-Jun-13 16:21N 43°44' E 007°26'0 0.0
2018-Jun-13 16:00N 43°44' E 007°26'0 0.0
2018-Jun-13 15:06N 43°44' E 007°26'0 0.0
2018-Jun-13 15:00N 43°44' E 007°26'0 0.0
2018-Jun-13 13:27N 43°44' E 007°26'0 0.0
2018-Jun-13 12:51N 43°44' E 007°26'0 0.0
2018-Jun-13 11:06N 43°44' E 007°26'0 0.0
2018-Jun-13 11:00N 43°44' E 007°26'0 0.0
2018-Jun-13 10:09N 43°44' E 007°26'0 0.0
2018-Jun-13 10:00N 43°44' E 007°26'0 0.0
2018-Jun-13 09:30N 43°44' E 007°26'0 0.0
2018-Jun-13 08:57N 43°44' E 007°26'0 0.0
2018-Jun-13 08:03N 43°44' E 007°26'0 0.0
2018-Jun-13 07:54N 43°44' E 007°26'0 0.0
2018-Jun-13 07:27N 43°44' E 007°26'0 0.0
2018-Jun-13 07:00N 43°44' E 007°26'0 0.0
2018-Jun-13 06:30N 43°44' E 007°26'0 0.0
2018-Jun-13 06:00N 43°44' E 007°26'0 0.0
2018-Jun-13 05:30N 43°44' E 007°26'0 0.0
2018-Jun-13 05:00N 43°44' E 007°26'0 0.0
2018-Jun-13 04:30N 43°44' E 007°26'0 0.0
2018-Jun-13 04:00N 43°44' E 007°26'0 0.0
2018-Jun-13 03:30N 43°44' E 007°26'0 0.0
2018-Jun-13 03:00N 43°44' E 007°26'0 0.0
2018-Jun-13 02:30N 43°44' E 007°26'0 0.0
2018-Jun-13 02:00N 43°44' E 007°26'0 0.0
2018-Jun-13 01:30N 43°44' E 007°26'0 0.0
2018-Jun-13 01:00N 43°44' E 007°26'0 0.0
2018-Jun-13 00:30N 43°44' E 007°26'0 0.0
2018-Jun-13 00:00N 43°44' E 007°26'0 0.0
2018-Jun-12 23:30N 43°44' E 007°26'0 0.0
2018-Jun-12 23:00N 43°44' E 007°26'0 0.0
2018-Jun-12 22:30N 43°44' E 007°26'0 0.0
2018-Jun-12 22:00N 43°44' E 007°26'0 0.0
2018-Jun-12 21:30N 43°44' E 007°26'0 0.0
2018-Jun-12 21:00N 43°44' E 007°26'0 0.0
2018-Jun-12 20:30N 43°44' E 007°26'0 0.0
2018-Jun-12 20:00N 43°44' E 007°26'0 0.0
2018-Jun-12 19:30N 43°44' E 007°26'0 0.0
2018-Jun-12 19:00N 43°44' E 007°26'0 0.0
2018-Jun-12 18:07N 43°44' E 007°26'0 0.0
2018-Jun-12 17:02N 43°44' E 007°26'0 0.0
2018-Jun-12 17:00N 43°44' E 007°26'0 0.0
2018-Jun-12 14:41N 43°44' E 007°26'0 0.0
2018-Jun-12 14:30N 43°44' E 007°26'0 0.7
2018-Jun-12 14:00N 43°44' E 007°26'1 1.8
2018-Jun-12 13:30N 43°44' E 007°27'8 2.3
2018-Jun-12 09:51N 43°39' E 007°37'1 1.3
2018-Jun-12 09:15N 43°40' E 007°36'7 4.3
2018-Jun-12 07:33N 43°43' E 007°27'0 0.0
2018-Jun-12 07:30N 43°43' E 007°27'0 0.2
2018-Jun-12 07:00N 43°43' E 007°27'5 8.1
2018-Jun-12 06:22N 43°38' E 007°26'6 3.7
2018-Jun-12 04:43N 43°44' E 007°26'0 0.6
2018-Jun-12 04:11N 43°44' E 007°26'0 0.0
2018-Jun-12 03:56N 43°44' E 007°26'0 0.0
2018-Jun-12 03:26N 43°44' E 007°26'0 0.0
2018-Jun-12 02:56N 43°44' E 007°26'0 0.0
2018-Jun-12 01:44N 43°44' E 007°26'  
Track history (hours):
 
Tides and Currents Weather Stations Pressure Air Temp Water Temp Dewpoint Dewpoint Depression Visibility Wind Speed Wind Dir Waves Ship Positions

Lionheart

Last reported at 2018-Jun-21 23:28 UTC. Time now 2018-Jun-21 23:54 UTC.
Position N 43°44' E 007°26'.

Length 90 m; draft 4.6 m.

Type: Pleasure craft. MMSI: 249613000.

Date/timePositionNaut miles runAvg speedWind from/ knotsBaromVisibWave heightAir tempDewpointWater temp
2018-Jun-21 23:28N 43°44' E 007°26'0 0.0
2018-Jun-21 22:58N 43°44' E 007°26'0 0.0
2018-Jun-21 22:28N 43°44' E 007°26'0 0.0
2018-Jun-21 21:58N 43°44' E 007°26'0 0.0
2018-Jun-21 21:28N 43°44' E 007°26'0 0.0
2018-Jun-21 20:52N 43°44' E 007°26'0 0.0
2018-Jun-21 20:28N 43°44' E 007°26'0 0.0
2018-Jun-21 19:58N 43°44' E 007°26'0 0.0
2018-Jun-21 19:28N 43°44' E 007°26'0 0.0
2018-Jun-21 18:58N 43°44' E 007°26'0 0.0
2018-Jun-21 18:28N 43°44' E 007°26'0 0.0
2018-Jun-21 17:58N 43°44' E 007°26'0 0.0
2018-Jun-21 17:28N 43°44' E 007°26'0 1.0
2018-Jun-21 17:00N 43°44' E 007°26'711.6
2018-Jun-21 16:24N 43°39' E 007°20'514.1
2018-Jun-21 16:00N 43°35' E 007°14'611.8
2018-Jun-21 15:30N 43°32' E 007°07'2 1.6
2018-Jun-21 14:25N 43°34' E 007°06'0 0.0
2018-Jun-21 13:58N 43°34' E 007°06'0 0.0
2018-Jun-21 13:25N 43°34' E 007°06'0 0.0
2018-Jun-21 10:25N 43°34' E 007°06'0 0.0
2018-Jun-21 08:49N 43°34' E 007°06'0 0.0
2018-Jun-21 08:19N 43°34' E 007°06'1 2.3
2018-Jun-21 08:00N 43°33' E 007°06'4 7.1
2018-Jun-21 07:30N 43°33' E 007°11'814.9
2018-Jun-21 06:58N 43°38' E 007°19'714.4
2018-Jun-21 06:30N 43°43' E 007°26'1 2.2
2018-Jun-21 05:54N 43°44' E 007°26'0 0.0
2018-Jun-21 05:27N 43°44' E 007°26'0 0.0
2018-Jun-21 04:54N 43°44' E 007°26'0 0.0
2018-Jun-21 04:24N 43°44' E 007°26'0 0.0
2018-Jun-21 03:57N 43°44' E 007°26'0 0.0
2018-Jun-21 03:30N 43°44' E 007°26'0 0.0
2018-Jun-21 02:57N 43°44' E 007°26'0 0.0
2018-Jun-21 02:30N 43°44' E 007°26'0 0.0
2018-Jun-21 02:00N 43°44' E 007°26'0 0.0
2018-Jun-21 01:24N 43°44' E 007°26'0 0.0
2018-Jun-21 00:57N 43°44' E 007°26'0 0.0
2018-Jun-21 00:30N 43°44' E 007°26'0 0.0
2018-Jun-21 00:00N 43°44' E 007°26'0 0.0
2018-Jun-20 23:27N 43°44' E 007°26'0 0.0
2018-Jun-20 23:00N 43°44' E 007°26'0 0.0
2018-Jun-20 22:27N 43°44' E 007°26'0 0.0
2018-Jun-20 21:57N 43°44' E 007°26'0 0.0
2018-Jun-20 21:30N 43°44' E 007°26'0 0.0
2018-Jun-20 20:57N 43°44' E 007°26'0 0.0
2018-Jun-20 20:21N 43°44' E 007°26'0 0.0
2018-Jun-20 19:57N 43°44' E 007°26'0 0.0
2018-Jun-20 19:30N 43°44' E 007°26'0 0.0
2018-Jun-20 18:57N 43°44' E 007°26'0 0.0
2018-Jun-20 18:18N 43°44' E 007°26'0 0.0
2018-Jun-20 18:00N 43°44' E 007°26'0 0.0
2018-Jun-20 17:27N 43°44' E 007°26'0 0.0
2018-Jun-20 17:00N 43°44' E 007°26'0 0.0
2018-Jun-20 16:30N 43°44' E 007°26'0 0.0
2018-Jun-20 16:00N 43°44' E 007°26'0 0.0
2018-Jun-20 15:30N 43°44' E 007°26'0 0.0
2018-Jun-20 14:57N 43°44' E 007°26'0 0.0
2018-Jun-20 14:30N 43°44' E 007°26'0 0.0
2018-Jun-20 14:00N 43°44' E 007°26'0 0.0
2018-Jun-20 13:30N 43°44' E 007°26'0 0.0
2018-Jun-20 13:00N 43°44' E 007°26'0 0.0
2018-Jun-20 12:30N 43°44' E 007°26'0 0.0
2018-Jun-20 11:57N 43°44' E 007°26'0 0.0
2018-Jun-20 11:27N 43°44' E 007°26'0 0.0
2018-Jun-20 11:00N 43°44' E 007°26'0 0.0
2018-Jun-20 10:30N 43°44' E 007°26'0 0.0
2018-Jun-20 10:00N 43°44' E 007°26'0 0.0
2018-Jun-20 09:30N 43°44' E 007°26'0 0.0
2018-Jun-20 09:00N 43°44' E 007°26'0 0.0
2018-Jun-20 08:30N 43°44' E 007°26'0 0.0
2018-Jun-20 08:00N 43°44' E 007°26'0 0.0
2018-Jun-20 07:30N 43°44' E 007°26'0 0.0
2018-Jun-20 07:00N 43°44' E 007°26'0 0.0
2018-Jun-20 06:30N 43°44' E 007°26'0 0.0
2018-Jun-20 06:00N 43°44' E 007°26'0 0.0
2018-Jun-20 05:30N 43°44' E 007°26'0 0.0
2018-Jun-20 05:00N 43°44' E 007°26'0 0.0
2018-Jun-20 04:30N 43°44' E 007°26'0 0.0
2018-Jun-20 04:00N 43°44' E 007°26'0 0.0
2018-Jun-20 03:30N 43°44' E 007°26'0 0.0
2018-Jun-20 03:00N 43°44' E 007°26'0 0.0
2018-Jun-20 02:27N 43°44' E 007°26'0 0.0
2018-Jun-20 01:57N 43°44' E 007°26'0 0.0
2018-Jun-20 01:30N 43°44' E 007°26'0 0.0
2018-Jun-20 01:00N 43°44' E 007°26'0 0.0
2018-Jun-20 00:30N 43°44' E 007°26'0 0.0
2018-Jun-20 00:00N 43°44' E 007°26'0 0.0
2018-Jun-19 23:27N 43°44' E 007°26'0 0.0
2018-Jun-19 22:57N 43°44' E 007°26'0 0.0
2018-Jun-19 22:30N 43°44' E 007°26'0 0.0
2018-Jun-19 22:00N 43°44' E 007°26'0 0.0
2018-Jun-19 21:24N 43°44' E 007°26'0 0.0
2018-Jun-19 21:00N 43°44' E 007°26'0 0.0
2018-Jun-19 20:30N 43°44' E 007°26'0 0.0
2018-Jun-19 20:00N 43°44' E 007°26'0 0.0
2018-Jun-19 19:30N 43°44' E 007°26'0 0.0
2018-Jun-19 18:57N 43°44' E 007°26'0 0.0
2018-Jun-19 18:30N 43°44' E 007°26'0 0.0
2018-Jun-19 18:00N 43°44' E 007°26'0 0.0
2018-Jun-19 17:30N 43°44' E 007°26'0 0.0
2018-Jun-19 17:00N 43°44' E 007°26'0 0.0
2018-Jun-19 16:30N 43°44' E 007°26'0 0.0
2018-Jun-19 16:00N 43°44' E 007°26'0 0.0
2018-Jun-19 15:30N 43°44' E 007°26'0 0.0
2018-Jun-19 15:00N 43°44' E 007°26'0 0.0
2018-Jun-19 14:30N 43°44' E 007°26'0 0.0
2018-Jun-19 14:00N 43°44' E 007°26'0 0.0
2018-Jun-19 13:30N 43°44' E 007°26'0 0.0
2018-Jun-19 13:00N 43°44' E 007°26'0 0.0
2018-Jun-19 12:30N 43°44' E 007°26'0 0.0
2018-Jun-19 12:00N 43°44' E 007°26'0 0.0
2018-Jun-19 11:30N 43°44' E 007°26'0 0.0
2018-Jun-19 11:00N 43°44' E 007°26'0 0.0
2018-Jun-19 10:30N 43°44' E 007°26'0 0.0
2018-Jun-19 09:57N 43°44' E 007°26'0 0.0
2018-Jun-19 09:30N 43°44' E 007°26'0 0.0
2018-Jun-19 09:00N 43°44' E 007°26'0 0.0
2018-Jun-19 08:30N 43°44' E 007°26'0 0.0
2018-Jun-19 08:00N 43°44' E 007°26'0 0.0
2018-Jun-19 07:30N 43°44' E 007°26'0 0.0
2018-Jun-19 07:00N 43°44' E 007°26'0 0.0
2018-Jun-19 06:30N 43°44' E 007°26'0 0.0
2018-Jun-19 06:00N 43°44' E 007°26'0 0.0
2018-Jun-19 05:30N 43°44' E 007°26'0 0.0
2018-Jun-19 05:00N 43°44' E 007°26'0 0.0
2018-Jun-19 04:27N 43°44' E 007°26'0 0.0
2018-Jun-19 04:00N 43°44' E 007°26'0 0.0
2018-Jun-19 03:30N 43°44' E 007°26'0 0.0
2018-Jun-19 03:00N 43°44' E 007°26'0 0.0
2018-Jun-19 02:24N 43°44' E 007°26'0 0.0
2018-Jun-19 02:00N 43°44' E 007°26'0 0.0
2018-Jun-19 01:30N 43°44' E 007°26'0 0.0
2018-Jun-19 01:00N 43°44' E 007°26'0 0.0
2018-Jun-19 00:30N 43°44' E 007°26'0 0.0
2018-Jun-18 23:57N 43°44' E 007°26'0 0.0
2018-Jun-18 23:30N 43°44' E 007°26'0 0.0
2018-Jun-18 22:51N 43°44' E 007°26'0 0.0
2018-Jun-18 22:30N 43°44' E 007°26'0 0.0
2018-Jun-18 22:00N 43°44' E 007°26'0 0.0
2018-Jun-18 21:30N 43°44' E 007°26'0 0.0
2018-Jun-18 21:00N 43°44' E 007°26'0 0.0
2018-Jun-18 20:30N 43°44' E 007°26'0 0.0
2018-Jun-18 20:00N 43°44' E 007°26'0 0.0
2018-Jun-18 19:27N 43°44' E 007°26'0 0.0
2018-Jun-18 19:00N 43°44' E 007°26'0 0.0
2018-Jun-18 18:30N 43°44' E 007°26'0 0.0
2018-Jun-18 18:00N 43°44' E 007°26'0 0.0
2018-Jun-18 17:30N 43°44' E 007°26'0 0.0
2018-Jun-18 17:00N 43°44' E 007°26'0 0.0
2018-Jun-18 16:30N 43°44' E 007°26'0 0.0
2018-Jun-18 16:00N 43°44' E 007°26'0 0.0
2018-Jun-18 15:30N 43°44' E 007°26'0 0.0
2018-Jun-18 14:57N 43°44' E 007°26'0 0.0
2018-Jun-18 14:30N 43°44' E 007°26'0 0.0
2018-Jun-18 14:00N 43°44' E 007°26'0 0.0
2018-Jun-18 13:30N 43°44' E 007°26'0 0.0
2018-Jun-18 13:00N 43°44' E 007°26'0 0.0
2018-Jun-18 12:30N 43°44' E 007°26'0 0.0
2018-Jun-18 11:57N 43°44' E 007°26'0 0.0
2018-Jun-18 11:24N 43°44' E 007°26'0 0.0
2018-Jun-18 11:00N 43°44' E 007°26'0 0.0
2018-Jun-18 10:30N 43°44' E 007°26'0 0.0
2018-Jun-18 10:00N 43°44' E 007°26'0 0.0
2018-Jun-18 09:30N 43°44' E 007°26'0 0.0
2018-Jun-18 09:00N 43°44' E 007°26'0 0.0
2018-Jun-18 08:30N 43°44' E 007°26'0 0.0
2018-Jun-18 08:00N 43°44' E 007°26'0 0.0
2018-Jun-18 07:30N 43°44' E 007°26'0 0.0
2018-Jun-18 07:00N 43°44' E 007°26'0 0.0
2018-Jun-18 06:06N 43°44' E 007°26'0 0.0
2018-Jun-18 05:45N 43°44' E 007°26'0 0.0
2018-Jun-18 04:21N 43°44' E 007°26'0 0.0
2018-Jun-18 03:12N 43°44' E 007°26'0 0.0
2018-Jun-17 20:21N 43°44' E 007°26'0 0.0
2018-Jun-17 19:57N 43°44' E 007°26'0 0.0
2018-Jun-17 19:30N 43°44' E 007°26'0 0.0
2018-Jun-17 18:15N 43°44' E 007°26'0 0.0
2018-Jun-17 17:45N 43°44' E 007°26'0 0.0
2018-Jun-17 17:18N 43°44' E 007°26'0 0.0
2018-Jun-17 16:12N 43°44' E 007°26'0 0.0
2018-Jun-17 15:46N 43°44' E 007°26'0 0.3
2018-Jun-17 15:30N 43°44' E 007°26'1 1.0
2018-Jun-17 14:56N 43°44' E 007°26'0 0.0
2018-Jun-17 14:20N 43°44' E 007°26'0 0.0
2018-Jun-17 13:59N 43°44' E 007°26'0 0.0
2018-Jun-17 13:29N 43°44' E 007°26'0 0.0
2018-Jun-17 12:59N 43°44' E 007°26'0 0.0
2018-Jun-17 12:23N 43°44' E 007°26'0 0.0
2018-Jun-17 11:47N 43°44' E 007°26'0 0.0
2018-Jun-17 11:28N 43°44' E 007°26'1 1.3
2018-Jun-17 10:58N 43°44' E 007°26'0 0.0
2018-Jun-17 10:30N 43°44' E 007°26'0 0.0
2018-Jun-17 10:00N 43°44' E 007°26'0 0.0
2018-Jun-17 09:30N 43°44' E 007°26'0 0.0
2018-Jun-17 09:00N 43°44' E 007°26'0 0.0
2018-Jun-17 08:30N 43°44' E 007°26'0 0.0
2018-Jun-17 08:00N 43°44' E 007°26'0 0.0
2018-Jun-17 07:30N 43°44' E 007°26'0 0.0
2018-Jun-17 07:00N 43°44' E 007°26'0 0.1
2018-Jun-17 06:30N 43°44' E 007°26'0 0.4
2018-Jun-17 05:47N 43°44' E 007°26'0 0.0
2018-Jun-17 05:29N 43°44' E 007°26'0 0.0
2018-Jun-17 04:59N 43°44' E 007°26'0 0.0
2018-Jun-17 04:23N 43°44' E 007°26'0 0.0
2018-Jun-17 03:59N 43°44' E 007°26'0 0.0
2018-Jun-17 03:11N 43°44' E 007°26'0 0.0
2018-Jun-17 02:47N 43°44' E 007°26'0 0.0
2018-Jun-17 02:23N 43°44' E 007°26'0 0.0
2018-Jun-17 01:59N 43°44' E 007°26'0 0.0
2018-Jun-17 01:23N 43°44' E 007°26'0 0.0
2018-Jun-17 00:59N 43°44' E 007°26'0 0.0
2018-Jun-17 00:29N 43°44' E 007°26'0 0.0
2018-Jun-16 23:59N 43°44' E 007°26'0 0.0
2018-Jun-16 23:29N 43°44' E 007°26'0 0.0
2018-Jun-16 22:53N 43°44' E 007°26'0 0.0
2018-Jun-16 22:29N 43°44' E 007°26'0 0.0
2018-Jun-16 21:53N 43°44' E 007°26'0 0.0
2018-Jun-16 21:17N 43°44' E 007°26'0 0.0
2018-Jun-16 20:59N 43°44' E 007°26'0 0.0
2018-Jun-16 19:05N 43°44' E 007°26'0 0.0
2018-Jun-16 18:41N 43°44' E 007°26'0 0.0
2018-Jun-16 18:29N 43°44' E 007°26'0 0.0
2018-Jun-16 17:59N 43°44' E 007°26'0 0.0
2018-Jun-16 16:35N 43°44' E 007°26'0 0.0
2018-Jun-16 16:17N 43°44' E 007°26'0 0.0
2018-Jun-16 15:59N 43°44' E 007°26'1 1.5
2018-Jun-16 15:30N 43°45' E 007°26'0 0.0
2018-Jun-16 15:00N 43°45' E 007°26'0 0.0
2018-Jun-16 14:30N 43°45' E 007°26'0 0.0
2018-Jun-16 14:00N 43°45' E 007°26'0 0.0
2018-Jun-16 13:30N 43°45' E 007°26'0 0.0
2018-Jun-16 13:00N 43°45' E 007°26'0 0.0
2018-Jun-16 12:30N 43°44' E 007°26'0 0.0
2018-Jun-16 12:00N 43°44' E 007°26'0 0.0
2018-Jun-16 11:30N 43°44' E 007°26'0 0.0
2018-Jun-16 10:57N 43°44' E 007°26'0 0.0
2018-Jun-16 10:30N 43°44' E 007°26'0 0.5
2018-Jun-16 10:00N 43°44' E 007°26'0 0.8
2018-Jun-16 09:30N 43°44' E 007°26'0 0.0
2018-Jun-16 09:00N 43°44' E 007°26'0 0.0
2018-Jun-16 08:30N 43°44' E 007°26'0 0.0
2018-Jun-16 07:57N 43°44' E 007°26'0 0.0
2018-Jun-16 07:30N 43°44' E 007°26'0 0.0
2018-Jun-16 07:00N 43°44' E 007°26'0 0.0
2018-Jun-16 06:27N 43°44' E 007°26'0 0.0
2018-Jun-16 05:57N 43°44' E 007°26'0 0.0
2018-Jun-16 04:57N 43°44' E 007°26'0 0.0
2018-Jun-16 04:15N 43°44' E 007°26'0 0.0
2018-Jun-16 03:51N 43°44' E 007°26'0 0.0
2018-Jun-16 03:27N 43°44' E 007°26'0 0.0
2018-Jun-16 02:51N 43°44' E 007°26'0 0.0
2018-Jun-16 02:21N 43°44' E 007°26'0 0.0
2018-Jun-16 01:57N 43°44' E 007°26'0 0.0
2018-Jun-16 01:30N 43°44' E 007°26'0 0.0
2018-Jun-16 01:00N 43°44' E 007°26'0 0.0
2018-Jun-16 00:27N 43°44' E 007°26'0 0.0
2018-Jun-15 22:51N 43°44' E 007°26'0 0.0
2018-Jun-15 22:12N 43°44' E 007°26'0 0.0
2018-Jun-15 21:48N 43°44' E 007°26'0 0.0
2018-Jun-15 21:30N 43°44' E 007°26'0 0.0
2018-Jun-15 20:57N 43°44' E 007°26'0 0.0
2018-Jun-15 20:27N 43°44' E 007°26'0 0.0
2018-Jun-15 19:42N 43°44' E 007°26'0 0.0
2018-Jun-15 19:27N 43°44' E 007°26'0 0.0
2018-Jun-15 18:57N 43°44' E 007°26'0 0.0
2018-Jun-15 18:21N 43°44' E 007°26'0 0.0
2018-Jun-15 17:42N 43°44' E 007°26'0 0.0
2018-Jun-15 17:27N 43°44' E 007°26'0 0.0
2018-Jun-15 17:00N 43°44' E 007°26'0 0.0
2018-Jun-15 16:21N 43°44' E 007°26'0 0.0
2018-Jun-15 16:00N 43°44' E 007°26'0 0.0
2018-Jun-15 15:30N 43°44' E 007°26'0 0.0
2018-Jun-15 15:00N 43°44' E 007°26'0 0.0
2018-Jun-15 14:30N 43°44' E 007°26'0 0.0
2018-Jun-15 13:57N 43°44' E 007°26'0 0.0
2018-Jun-15 13:30N 43°44' E 007°26'0 0.0
2018-Jun-15 13:00N 43°44' E 007°26'0 0.0
2018-Jun-15 12:27N 43°44' E 007°26'0 0.0
2018-Jun-15 12:00N 43°44' E 007°26'0 0.0
2018-Jun-15 11:30N 43°44' E 007°26'0 0.0
2018-Jun-15 11:00N 43°44' E 007°26'0 0.0
2018-Jun-15 10:30N 43°44' E 007°26'0 0.0
2018-Jun-15 10:00N 43°44' E 007°26'0 0.0
2018-Jun-15 09:24N 43°44' E 007°26'0 0.0
2018-Jun-15 08:57N 43°44' E 007°26'0 0.0
2018-Jun-15 08:30N 43°44' E 007°26'0 0.0
2018-Jun-15 08:00N 43°44' E 007°26'0 0.0
2018-Jun-15 07:27N 43°44' E 007°26'0 0.0
2018-Jun-15 06:57N 43°44' E 007°26'0 0.0
2018-Jun-15 06:21N 43°44' E 007°26'0 0.0
2018-Jun-15 05:57N 43°44' E 007°26'0 0.0
2018-Jun-15 05:27N 43°44' E 007°26'0 0.0
2018-Jun-15 03:45N 43°44' E 007°26'0 0.0
2018-Jun-15 03:21N 43°44' E 007°26'0 0.0
2018-Jun-15 02:15N 43°44' E 007°26'0 0.0
2018-Jun-15 00:51N 43°44' E 007°26'0 0.0
2018-Jun-15 00:06N 43°44' E 007°26'0 0.0
2018-Jun-14 23:45N 43°44' E 007°26'0 0.0
2018-Jun-14 23:21N 43°44' E 007°26'0 0.0
2018-Jun-14 22:57N 43°44' E 007°26'0 0.0
2018-Jun-14 21:57N 43°44' E 007°26'0 0.0
2018-Jun-14 19:45N 43°44' E 007°26'0 0.0
2018-Jun-14 19:15N 43°44' E 007°26'0 0.0
2018-Jun-14 19:00N 43°44' E 007°26'0 0.0
2018-Jun-14 18:21N 43°44' E 007°26'0 0.0
2018-Jun-14 17:54N 43°44' E 007°26'0 0.0
2018-Jun-14 17:21N 43°44' E 007°26'0 0.0
2018-Jun-14 16:57N 43°44' E 007°26'0 0.0
2018-Jun-14 16:21N 43°44' E 007°26'0 0.0
2018-Jun-14 15:57N 43°44' E 007°26'0 0.0
2018-Jun-14 15:27N 43°44' E 007°26'0 0.0
2018-Jun-14 14:51N 43°44' E 007°26'0 0.0
2018-Jun-14 14:27N 43°44' E 007°26'0 0.0
2018-Jun-14 13:54N 43°44' E 007°26'0 0.0
2018-Jun-14 12:42N 43°44' E 007°26'0 0.0
2018-Jun-14 12:21N 43°44' E 007°26'0 0.0
2018-Jun-14 12:00N 43°44' E 007°26'0 0.0
2018-Jun-14 11:27N 43°44' E 007°26'0 0.0
2018-Jun-14 10:45N 43°44' E 007°26'0 0.0
2018-Jun-14 10:27N 43°44' E 007°26'0 0.0
2018-Jun-14 09:57N 43°44' E 007°26'0 0.0
2018-Jun-14 09:21N 43°44' E 007°26'0 0.0
2018-Jun-14 09:00N 43°44' E 007°26'0 0.0
2018-Jun-14 07:57N 43°44' E 007°26'0 0.0
2018-Jun-14 07:27N 43°44' E 007°26'0 0.0
2018-Jun-14 06:24N 43°44' E 007°26'0 0.0
2018-Jun-14 06:00N 43°44' E 007°26'0 0.0
2018-Jun-14 05:27N 43°44' E 007°26'0 0.0
2018-Jun-14 04:45N 43°44' E 007°26'0 0.0
2018-Jun-14 04:09N 43°44' E 007°26'0 0.0
2018-Jun-14 03:54N 43°44' E 007°26'0 0.0
2018-Jun-14 03:27N 43°44' E 007°26'0 0.0
2018-Jun-14 02:57N 43°44' E 007°26'0 0.0
2018-Jun-14 02:27N 43°44' E 007°26'0 0.0
2018-Jun-14 01:57N 43°44' E 007°26'0 0.0
2018-Jun-14 01:27N 43°44' E 007°26'0 0.0
2018-Jun-14 01:00N 43°44' E 007°26'0 0.0
2018-Jun-13 23:42N 43°44' E 007°26'0 0.0
2018-Jun-13 23:24N 43°44' E 007°26'0 0.0
2018-Jun-13 22:57N 43°44' E 007°26'0 0.0
2018-Jun-13 22:27N 43°44' E 007°26'0 0.0
2018-Jun-13 20:33N 43°44' E 007°26'0 0.0
2018-Jun-13 20:09N 43°44' E 007°26'0 0.0
2018-Jun-13 19:54N 43°44' E 007°26'0 0.0
2018-Jun-13 18:57N 43°44' E 007°26'0 0.0
2018-Jun-13 18:27N 43°44' E 007°26'0 0.0
2018-Jun-13 18:00N 43°44' E 007°26'0 0.0
2018-Jun-13 17:27N 43°44' E 007°26'0 0.0
2018-Jun-13 16:51N 43°44' E 007°26'0 0.0
2018-Jun-13 16:21N 43°44' E 007°26'0 0.0
2018-Jun-13 16:00N 43°44' E 007°26'0 0.0
2018-Jun-13 15:06N 43°44' E 007°26'0 0.0
2018-Jun-13 15:00N 43°44' E 007°26'0 0.0
2018-Jun-13 13:27N 43°44' E 007°26'0 0.0
2018-Jun-13 12:51N 43°44' E 007°26'0 0.0
2018-Jun-13 11:06N 43°44' E 007°26'0 0.0
2018-Jun-13 11:00N 43°44' E 007°26'0 0.0
2018-Jun-13 10:09N 43°44' E 007°26'0 0.0
2018-Jun-13 10:00N 43°44' E 007°26'0 0.0
2018-Jun-13 09:30N 43°44' E 007°26'0 0.0
2018-Jun-13 08:57N 43°44' E 007°26'0 0.0
2018-Jun-13 08:03N 43°44' E 007°26'0 0.0
2018-Jun-13 07:54N 43°44' E 007°26'0 0.0
2018-Jun-13 07:27N 43°44' E 007°26'0 0.0
2018-Jun-13 07:00N 43°44' E 007°26'0 0.0
2018-Jun-13 06:30N 43°44' E 007°26'0 0.0
2018-Jun-13 06:00N 43°44' E 007°26'0 0.0
2018-Jun-13 05:30N 43°44' E 007°26'0 0.0
2018-Jun-13 05:00N 43°44' E 007°26'0 0.0
2018-Jun-13 04:30N 43°44' E 007°26'0 0.0
2018-Jun-13 04:00N 43°44' E 007°26'0 0.0
2018-Jun-13 03:30N 43°44' E 007°26'0 0.0
2018-Jun-13 03:00N 43°44' E 007°26'0 0.0
2018-Jun-13 02:30N 43°44' E 007°26'0 0.0
2018-Jun-13 02:00N 43°44' E 007°26'0 0.0
2018-Jun-13 01:30N 43°44' E 007°26'0 0.0
2018-Jun-13 01:00N 43°44' E 007°26'0 0.0
2018-Jun-13 00:30N 43°44' E 007°26'0 0.0
2018-Jun-13 00:00N 43°44' E 007°26'0 0.0
2018-Jun-12 23:30N 43°44' E 007°26'0 0.0
2018-Jun-12 23:00N 43°44' E 007°26'0 0.0
2018-Jun-12 22:30N 43°44' E 007°26'0 0.0
2018-Jun-12 22:00N 43°44' E 007°26'0 0.0
2018-Jun-12 21:30N 43°44' E 007°26'0 0.0
2018-Jun-12 21:00N 43°44' E 007°26'0 0.0
2018-Jun-12 20:30N 43°44' E 007°26'0 0.0
2018-Jun-12 20:00N 43°44' E 007°26'0 0.0
2018-Jun-12 19:30N 43°44' E 007°26'0 0.0
2018-Jun-12 19:00N 43°44' E 007°26'0 0.0
2018-Jun-12 18:07N 43°44' E 007°26'0 0.0
2018-Jun-12 17:02N 43°44' E 007°26'0 0.0
2018-Jun-12 17:00N 43°44' E 007°26'0 0.0
2018-Jun-12 14:41N 43°44' E 007°26'0 0.0
2018-Jun-12 14:30N 43°44' E 007°26'0 0.7
2018-Jun-12 14:00N 43°44' E 007°26'1 1.8
2018-Jun-12 13:30N 43°44' E 007°27'8 2.3
2018-Jun-12 09:51N 43°39' E 007°37'1 1.3
2018-Jun-12 09:15N 43°40' E 007°36'7 4.3
2018-Jun-12 07:33N 43°43' E 007°27'0 0.0
2018-Jun-12 07:30N 43°43' E 007°27'0 0.2
2018-Jun-12 07:00N 43°43' E 007°27'5 8.1
2018-Jun-12 06:22N 43°38' E 007°26'6 3.7
2018-Jun-12 04:43N 43°44' E 007°26'0 0.6
2018-Jun-12 04:11N 43°44' E 007°26'0 0.0
2018-Jun-12 03:56N 43°44' E 007°26'0 0.0
2018-Jun-12 03:26N 43°44' E 007°26'0 0.0
2018-Jun-12 02:56N 43°44' E 007°26'0 0.0
2018-Jun-12 01:44N 43°44' E 007°26'  

Dump ship's entire track history